sensor_id;sensor_type;location;lat;lon;timestamp;P1;durP1;ratioP1;P2;durP2;ratioP2
23490;SDS011;14683;50.038;8.078;2022-12-20T07:01:39;50.60;;;26.85;;
23490;SDS011;14683;50.038;8.078;2022-12-20T07:04:05;43.28;;;23.85;;
23490;SDS011;14683;50.038;8.078;2022-12-20T07:06:31;49.40;;;25.42;;
23490;SDS011;14683;50.038;8.078;2022-12-20T07:08:57;41.33;;;23.67;;
23490;SDS011;14683;50.038;8.078;2022-12-20T07:11:23;45.15;;;25.13;;
23490;SDS011;14683;50.038;8.078;2022-12-20T07:13:53;41.85;;;24.77;;
23490;SDS011;14683;50.038;8.078;2022-12-20T07:16:20;42.05;;;22.77;;
23490;SDS011;14683;50.038;8.078;2022-12-20T07:18:49;40.83;;;23.83;;
23490;SDS011;14683;50.038;8.078;2022-12-20T07:21:17;46.83;;;24.73;;
23490;SDS011;14683;50.038;8.078;2022-12-20T07:23:44;51.90;;;29.33;;
23490;SDS011;14683;50.038;8.078;2022-12-20T07:26:11;61.63;;;32.28;;
23490;SDS011;14683;50.038;8.078;2022-12-20T07:28:38;62.13;;;33.17;;
23490;SDS011;14683;50.038;8.078;2022-12-20T07:31:05;60.85;;;31.55;;
23490;SDS011;14683;50.038;8.078;2022-12-20T07:33:31;49.67;;;25.88;;
23490;SDS011;14683;50.038;8.078;2022-12-20T07:36:04;41.70;;;21.65;;
23490;SDS011;14683;50.038;8.078;2022-12-20T07:38:32;36.40;;;21.30;;
23490;SDS011;14683;50.038;8.078;2022-12-20T07:41:00;37.55;;;20.50;;
23490;SDS011;14683;50.038;8.078;2022-12-20T07:43:31;38.20;;;22.00;;
23490;SDS011;14683;50.038;8.078;2022-12-20T07:48:22;37.78;;;21.00;;
23490;SDS011;14683;50.038;8.078;2022-12-20T07:53:19;40.05;;;20.98;;
23490;SDS011;14683;50.038;8.078;2022-12-20T07:55:46;41.42;;;20.80;;
23490;SDS011;14683;50.038;8.078;2022-12-20T07:58:13;39.92;;;21.75;;
23490;SDS011;14683;50.038;8.078;2022-12-20T08:00:39;38.42;;;20.52;;
23490;SDS011;14683;50.038;8.078;2022-12-20T08:03:13;42.65;;;22.17;;
23490;SDS011;14683;50.038;8.078;2022-12-20T08:08:08;36.55;;;20.90;;
23490;SDS011;14683;50.038;8.078;2022-12-20T08:10:35;43.67;;;22.35;;
23490;SDS011;14683;50.038;8.078;2022-12-20T08:13:02;46.80;;;26.42;;
23490;SDS011;14683;50.038;8.078;2022-12-20T08:15:29;43.10;;;21.08;;
23490;SDS011;14683;50.038;8.078;2022-12-20T08:17:55;32.20;;;20.52;;
23490;SDS011;14683;50.038;8.078;2022-12-20T08:20:21;64.40;;;31.92;;
23490;SDS011;14683;50.038;8.078;2022-12-20T08:22:48;50.47;;;25.70;;
23490;SDS011;14683;50.038;8.078;2022-12-20T08:25:14;74.75;;;36.65;;
23490;SDS011;14683;50.038;8.078;2022-12-20T08:30:06;52.63;;;27.75;;
23490;SDS011;14683;50.038;8.078;2022-12-20T08:32:33;48.05;;;24.77;;
23490;SDS011;14683;50.038;8.078;2022-12-20T08:35:00;42.75;;;24.55;;
23490;SDS011;14683;50.038;8.078;2022-12-20T08:37:26;36.75;;;22.58;;
23490;SDS011;14683;50.038;8.078;2022-12-20T08:39:52;40.83;;;22.85;;
23490;SDS011;14683;50.038;8.078;2022-12-20T08:44:44;43.53;;;22.98;;
23490;SDS011;14683;50.038;8.078;2022-12-20T08:49:36;40.92;;;22.90;;
23490;SDS011;14683;50.038;8.078;2022-12-20T08:54:28;43.38;;;25.48;;
23490;SDS011;14683;50.038;8.078;2022-12-20T08:59:20;38.05;;;22.17;;
23490;SDS011;14683;50.038;8.078;2022-12-20T09:04:12;41.63;;;23.92;;
23490;SDS011;14683;50.038;8.078;2022-12-20T09:06:39;42.95;;;24.17;;
23490;SDS011;14683;50.038;8.078;2022-12-20T09:09:05;41.75;;;24.30;;
23490;SDS011;14683;50.038;8.078;2022-12-20T09:11:32;35.45;;;21.40;;
23490;SDS011;14683;50.038;8.078;2022-12-20T09:13:58;34.38;;;20.77;;
23490;SDS011;14683;50.038;8.078;2022-12-20T09:18:52;38.80;;;22.48;;
23490;SDS011;14683;50.038;8.078;2022-12-20T09:21:19;39.95;;;22.38;;
23490;SDS011;14683;50.038;8.078;2022-12-20T09:23:46;35.67;;;22.05;;
23490;SDS011;14683;50.038;8.078;2022-12-20T09:26:13;36.33;;;21.83;;
23490;SDS011;14683;50.038;8.078;2022-12-20T09:28:41;38.05;;;22.48;;
23490;SDS011;14683;50.038;8.078;2022-12-20T09:31:09;33.97;;;20.23;;
23490;SDS011;14683;50.038;8.078;2022-12-20T09:33:37;33.97;;;19.98;;
23490;SDS011;14683;50.038;8.078;2022-12-20T09:38:29;39.53;;;19.73;;
23490;SDS011;14683;50.038;8.078;2022-12-20T09:40:57;34.88;;;19.00;;
23490;SDS011;14683;50.038;8.078;2022-12-20T09:43:25;34.65;;;20.55;;
23490;SDS011;14683;50.038;8.078;2022-12-20T09:45:57;34.45;;;20.25;;
23490;SDS011;14683;50.038;8.078;2022-12-20T09:48:26;37.75;;;20.98;;
23490;SDS011;14683;50.038;8.078;2022-12-20T09:51:06;36.22;;;21.98;;
23490;SDS011;14683;50.038;8.078;2022-12-20T09:56:26;39.97;;;22.25;;
23490;SDS011;14683;50.038;8.078;2022-12-20T09:58:56;35.90;;;20.35;;
23490;SDS011;14683;50.038;8.078;2022-12-20T10:01:36;36.75;;;20.60;;
23490;SDS011;14683;50.038;8.078;2022-12-20T10:04:05;32.42;;;19.77;;
23490;SDS011;14683;50.038;8.078;2022-12-20T10:06:39;35.13;;;20.77;;
23490;SDS011;14683;50.038;8.078;2022-12-20T10:20:33;35.63;;;20.50;;
23490;SDS011;14683;50.038;8.078;2022-12-20T10:23:24;38.85;;;21.00;;
23490;SDS011;14683;50.038;8.078;2022-12-20T10:28:25;32.05;;;18.73;;
23490;SDS011;14683;50.038;8.078;2022-12-20T10:30:53;34.72;;;20.17;;
23490;SDS011;14683;50.038;8.078;2022-12-20T10:33:21;30.98;;;19.65;;
23490;SDS011;14683;50.038;8.078;2022-12-20T10:35:49;34.10;;;19.73;;
23490;SDS011;14683;50.038;8.078;2022-12-20T10:38:15;36.25;;;20.05;;
23490;SDS011;14683;50.038;8.078;2022-12-20T10:41:00;30.23;;;18.10;;
23490;SDS011;14683;50.038;8.078;2022-12-20T10:43:35;38.50;;;20.17;;
23490;SDS011;14683;50.038;8.078;2022-12-20T10:46:06;34.03;;;19.38;;
23490;SDS011;14683;50.038;8.078;2022-12-20T10:53:29;38.08;;;21.35;;
23490;SDS011;14683;50.038;8.078;2022-12-20T11:01:58;39.50;;;20.60;;
23490;SDS011;14683;50.038;8.078;2022-12-20T11:06:50;33.53;;;19.77;;
23490;SDS011;14683;50.038;8.078;2022-12-20T11:12:05;37.92;;;21.30;;
23490;SDS011;14683;50.038;8.078;2022-12-20T11:14:36;34.33;;;20.02;;
23490;SDS011;14683;50.038;8.078;2022-12-20T11:17:04;32.55;;;20.50;;
23490;SDS011;14683;50.038;8.078;2022-12-20T11:22:29;37.08;;;20.20;;
23490;SDS011;14683;50.038;8.078;2022-12-20T11:28:21;37.88;;;21.20;;
23490;SDS011;14683;50.038;8.078;2022-12-20T11:34:10;28.27;;;18.63;;
23490;SDS011;14683;50.038;8.078;2022-12-20T11:36:53;36.10;;;21.00;;
23490;SDS011;14683;50.038;8.078;2022-12-20T11:42:10;37.13;;;23.00;;
23490;SDS011;14683;50.038;8.078;2022-12-20T11:47:32;33.38;;;20.95;;
23490;SDS011;14683;50.038;8.078;2022-12-20T11:50:30;31.30;;;19.52;;
23490;SDS011;14683;50.038;8.078;2022-12-20T11:55:51;29.25;;;18.42;;
23490;SDS011;14683;50.038;8.078;2022-12-20T11:58:26;31.00;;;19.27;;
23490;SDS011;14683;50.038;8.078;2022-12-20T12:01:11;33.85;;;19.67;;
23490;SDS011;14683;50.038;8.078;2022-12-20T12:03:42;41.47;;;22.45;;
23490;SDS011;14683;50.038;8.078;2022-12-20T12:06:26;39.05;;;21.88;;
23490;SDS011;14683;50.038;8.078;2022-12-20T12:11:59;33.40;;;20.52;;
23490;SDS011;14683;50.038;8.078;2022-12-20T12:14:37;38.00;;;20.65;;
23490;SDS011;14683;50.038;8.078;2022-12-20T12:17:08;35.58;;;21.50;;
23490;SDS011;14683;50.038;8.078;2022-12-20T12:19:47;35.90;;;20.35;;
23490;SDS011;14683;50.038;8.078;2022-12-20T12:22:15;37.27;;;21.33;;
23490;SDS011;14683;50.038;8.078;2022-12-20T12:24:47;34.25;;;20.63;;
23490;SDS011;14683;50.038;8.078;2022-12-20T12:27:21;31.58;;;19.77;;
23490;SDS011;14683;50.038;8.078;2022-12-20T12:29:50;31.15;;;20.48;;
23490;SDS011;14683;50.038;8.078;2022-12-20T12:32:23;36.88;;;21.63;;
23490;SDS011;14683;50.038;8.078;2022-12-20T12:37:37;40.85;;;21.73;;
23490;SDS011;14683;50.038;8.078;2022-12-20T12:40:21;46.20;;;24.08;;
23490;SDS011;14683;50.038;8.078;2022-12-20T12:45:47;44.55;;;24.65;;
23490;SDS011;14683;50.038;8.078;2022-12-20T12:50:46;39.72;;;23.85;;
23490;SDS011;14683;50.038;8.078;2022-12-20T12:53:21;36.25;;;22.35;;
23490;SDS011;14683;50.038;8.078;2022-12-20T12:55:57;35.67;;;21.98;;
23490;SDS011;14683;50.038;8.078;2022-12-20T13:08:50;46.45;;;25.35;;
23490;SDS011;14683;50.038;8.078;2022-12-20T13:11:40;47.42;;;24.73;;
23490;SDS011;14683;50.038;8.078;2022-12-20T13:16:45;45.63;;;25.45;;
23490;SDS011;14683;50.038;8.078;2022-12-20T13:19:13;56.83;;;29.00;;
23490;SDS011;14683;50.038;8.078;2022-12-20T13:22:26;56.90;;;29.13;;
23490;SDS011;14683;50.038;8.078;2022-12-20T13:24:55;44.17;;;24.10;;
23490;SDS011;14683;50.038;8.078;2022-12-20T13:27:22;39.60;;;21.30;;
23490;SDS011;14683;50.038;8.078;2022-12-20T13:40:18;33.92;;;21.25;;
23490;SDS011;14683;50.038;8.078;2022-12-20T13:42:47;32.95;;;20.95;;
23490;SDS011;14683;50.038;8.078;2022-12-20T13:45:16;32.70;;;19.95;;
23490;SDS011;14683;50.038;8.078;2022-12-20T13:47:44;34.13;;;21.05;;
23490;SDS011;14683;50.038;8.078;2022-12-20T13:50:20;35.42;;;22.58;;
23490;SDS011;14683;50.038;8.078;2022-12-20T13:52:49;34.60;;;20.50;;
23490;SDS011;14683;50.038;8.078;2022-12-20T13:55:21;30.02;;;19.00;;
23490;SDS011;14683;50.038;8.078;2022-12-20T13:57:50;33.45;;;20.48;;
23490;SDS011;14683;50.038;8.078;2022-12-20T14:00:18;34.10;;;20.25;;
23490;SDS011;14683;50.038;8.078;2022-12-20T14:02:47;31.55;;;19.05;;
23490;SDS011;14683;50.038;8.078;2022-12-20T14:05:21;33.00;;;20.10;;
23490;SDS011;14683;50.038;8.078;2022-12-20T14:07:55;34.22;;;20.38;;
23490;SDS011;14683;50.038;8.078;2022-12-20T14:10:24;39.20;;;23.02;;
23490;SDS011;14683;50.038;8.078;2022-12-20T14:12:53;39.28;;;23.80;;
23490;SDS011;14683;50.038;8.078;2022-12-20T14:15:21;40.15;;;24.13;;
23490;SDS011;14683;50.038;8.078;2022-12-20T14:17:51;55.10;;;30.33;;
23490;SDS011;14683;50.038;8.078;2022-12-20T14:20:39;53.38;;;31.05;;
23490;SDS011;14683;50.038;8.078;2022-12-20T14:23:05;52.63;;;30.43;;
23490;SDS011;14683;50.038;8.078;2022-12-20T14:30:55;55.55;;;32.05;;
23490;SDS011;14683;50.038;8.078;2022-12-20T14:33:29;50.15;;;29.90;;
23490;SDS011;14683;50.038;8.078;2022-12-20T14:35:56;45.33;;;26.73;;
23490;SDS011;14683;50.038;8.078;2022-12-20T14:38:28;42.25;;;26.95;;
23490;SDS011;14683;50.038;8.078;2022-12-20T14:40:55;47.55;;;27.52;;
23490;SDS011;14683;50.038;8.078;2022-12-20T14:43:28;38.95;;;24.65;;
23490;SDS011;14683;50.038;8.078;2022-12-20T14:51:42;35.03;;;20.83;;
23490;SDS011;14683;50.038;8.078;2022-12-20T14:57:09;34.53;;;20.98;;
23490;SDS011;14683;50.038;8.078;2022-12-20T14:59:37;32.72;;;21.58;;
23490;SDS011;14683;50.038;8.078;2022-12-20T15:04:47;35.70;;;21.83;;
23490;SDS011;14683;50.038;8.078;2022-12-20T15:07:29;40.08;;;25.10;;
23490;SDS011;14683;50.038;8.078;2022-12-20T15:09:58;41.15;;;25.70;;
23490;SDS011;14683;50.038;8.078;2022-12-20T15:14:50;31.63;;;21.20;;
23490;SDS011;14683;50.038;8.078;2022-12-20T15:19:42;30.10;;;19.20;;
23490;SDS011;14683;50.038;8.078;2022-12-20T15:22:15;28.90;;;18.70;;
23490;SDS011;14683;50.038;8.078;2022-12-20T15:24:42;29.05;;;18.67;;
23490;SDS011;14683;50.038;8.078;2022-12-20T15:29:38;30.25;;;18.25;;
23490;SDS011;14683;50.038;8.078;2022-12-20T15:32:06;24.42;;;17.27;;
23490;SDS011;14683;50.038;8.078;2022-12-20T15:34:38;28.52;;;17.80;;
23490;SDS011;14683;50.038;8.078;2022-12-20T15:39:31;33.53;;;19.63;;
23490;SDS011;14683;50.038;8.078;2022-12-20T15:42:02;25.60;;;16.20;;
23490;SDS011;14683;50.038;8.078;2022-12-20T15:44:29;33.83;;;20.52;;
23490;SDS011;14683;50.038;8.078;2022-12-20T15:46:56;36.13;;;21.00;;
23490;SDS011;14683;50.038;8.078;2022-12-20T15:51:49;31.65;;;19.98;;
23490;SDS011;14683;50.038;8.078;2022-12-20T15:54:24;40.92;;;23.48;;
23490;SDS011;14683;50.038;8.078;2022-12-20T15:56:56;43.22;;;25.90;;
23490;SDS011;14683;50.038;8.078;2022-12-20T15:59:27;28.95;;;17.48;;
23490;SDS011;14683;50.038;8.078;2022-12-20T16:01:54;25.42;;;15.05;;
23490;SDS011;14683;50.038;8.078;2022-12-20T16:04:21;21.65;;;13.90;;
23490;SDS011;14683;50.038;8.078;2022-12-20T16:06:49;25.55;;;15.88;;
23490;SDS011;14683;50.038;8.078;2022-12-20T16:09:18;24.70;;;15.27;;
23490;SDS011;14683;50.038;8.078;2022-12-20T16:11:44;24.27;;;14.25;;
23490;SDS011;14683;50.038;8.078;2022-12-20T16:14:14;26.90;;;15.20;;
23490;SDS011;14683;50.038;8.078;2022-12-20T16:16:41;26.77;;;16.42;;
23490;SDS011;14683;50.038;8.078;2022-12-20T16:19:08;22.40;;;14.85;;
23490;SDS011;14683;50.038;8.078;2022-12-20T16:21:35;27.08;;;15.48;;
23490;SDS011;14683;50.038;8.078;2022-12-20T16:24:10;28.15;;;16.73;;
23490;SDS011;14683;50.038;8.078;2022-12-20T16:26:37;22.35;;;13.88;;
23490;SDS011;14683;50.038;8.078;2022-12-20T16:31:31;25.63;;;15.05;;
23490;SDS011;14683;50.038;8.078;2022-12-20T16:33:59;22.15;;;15.80;;
23490;SDS011;14683;50.038;8.078;2022-12-20T16:36:27;21.85;;;14.18;;
23490;SDS011;14683;50.038;8.078;2022-12-20T16:38:54;23.40;;;14.57;;
23490;SDS011;14683;50.038;8.078;2022-12-20T16:41:23;30.65;;;18.45;;
23490;SDS011;14683;50.038;8.078;2022-12-20T16:43:50;23.92;;;14.25;;
23490;SDS011;14683;50.038;8.078;2022-12-20T16:48:43;23.40;;;13.82;;
23490;SDS011;14683;50.038;8.078;2022-12-20T16:53:50;23.70;;;14.13;;
23490;SDS011;14683;50.038;8.078;2022-12-20T16:56:29;32.28;;;17.85;;
23490;SDS011;14683;50.038;8.078;2022-12-20T16:58:55;28.52;;;17.80;;
23490;SDS011;14683;50.038;8.078;2022-12-20T17:01:23;32.60;;;19.63;;
23490;SDS011;14683;50.038;8.078;2022-12-20T17:03:53;31.58;;;18.80;;
23490;SDS011;14683;50.038;8.078;2022-12-20T17:08:45;30.55;;;15.68;;
23490;SDS011;14683;50.038;8.078;2022-12-20T17:11:13;23.70;;;15.50;;
23490;SDS011;14683;50.038;8.078;2022-12-20T17:13:48;22.77;;;15.10;;
23490;SDS011;14683;50.038;8.078;2022-12-20T17:16:16;21.98;;;14.38;;
23490;SDS011;14683;50.038;8.078;2022-12-20T17:18:43;26.77;;;14.32;;
23490;SDS011;14683;50.038;8.078;2022-12-20T17:23:44;21.83;;;14.75;;
23490;SDS011;14683;50.038;8.078;2022-12-20T17:26:15;25.70;;;16.35;;
23490;SDS011;14683;50.038;8.078;2022-12-20T17:28:46;43.85;;;23.77;;
23490;SDS011;14683;50.038;8.078;2022-12-20T17:33:55;24.58;;;15.65;;
23490;SDS011;14683;50.038;8.078;2022-12-20T17:36:22;23.38;;;14.98;;
23490;SDS011;14683;50.038;8.078;2022-12-20T17:38:49;22.00;;;14.55;;
23490;SDS011;14683;50.038;8.078;2022-12-20T17:41:22;28.23;;;17.23;;
23490;SDS011;14683;50.038;8.078;2022-12-20T17:43:51;25.42;;;16.02;;
23490;SDS011;14683;50.038;8.078;2022-12-20T17:46:17;24.77;;;15.43;;
23490;SDS011;14683;50.038;8.078;2022-12-20T17:48:45;23.88;;;14.85;;
23490;SDS011;14683;50.038;8.078;2022-12-20T17:51:25;25.83;;;16.50;;
23490;SDS011;14683;50.038;8.078;2022-12-20T17:54:07;25.30;;;16.10;;
23490;SDS011;14683;50.038;8.078;2022-12-20T17:56:41;30.50;;;19.10;;
23490;SDS011;14683;50.038;8.078;2022-12-20T18:01:34;32.20;;;19.67;;
23490;SDS011;14683;50.038;8.078;2022-12-20T18:04:01;32.88;;;18.77;;
23490;SDS011;14683;50.038;8.078;2022-12-20T18:06:31;27.88;;;17.38;;
23490;SDS011;14683;50.038;8.078;2022-12-20T18:08:59;31.48;;;17.95;;
23490;SDS011;14683;50.038;8.078;2022-12-20T18:11:26;29.20;;;18.00;;
23490;SDS011;14683;50.038;8.078;2022-12-20T18:13:53;32.95;;;18.85;;
23490;SDS011;14683;50.038;8.078;2022-12-20T18:16:22;37.90;;;19.52;;
23490;SDS011;14683;50.038;8.078;2022-12-20T18:18:49;52.22;;;23.98;;
23490;SDS011;14683;50.038;8.078;2022-12-20T18:21:16;43.38;;;22.10;;
23490;SDS011;14683;50.038;8.078;2022-12-20T18:23:43;34.90;;;18.48;;
23490;SDS011;14683;50.038;8.078;2022-12-20T18:26:23;25.90;;;16.17;;
23490;SDS011;14683;50.038;8.078;2022-12-20T18:28:57;26.40;;;15.00;;
23490;SDS011;14683;50.038;8.078;2022-12-20T18:31:26;26.02;;;14.13;;
23490;SDS011;14683;50.038;8.078;2022-12-20T18:33:53;21.98;;;14.93;;
23490;SDS011;14683;50.038;8.078;2022-12-20T18:36:28;22.60;;;14.43;;
23490;SDS011;14683;50.038;8.078;2022-12-20T18:38:56;25.55;;;14.93;;
23490;SDS011;14683;50.038;8.078;2022-12-20T18:41:24;19.27;;;14.27;;
23490;SDS011;14683;50.038;8.078;2022-12-20T18:43:52;21.58;;;14.73;;
23490;SDS011;14683;50.038;8.078;2022-12-20T18:46:23;24.23;;;14.85;;
23490;SDS011;14683;50.038;8.078;2022-12-20T18:48:50;21.95;;;15.60;;
23490;SDS011;14683;50.038;8.078;2022-12-20T18:51:18;24.67;;;16.52;;
23490;SDS011;14683;50.038;8.078;2022-12-20T18:53:47;23.10;;;14.88;;
23490;SDS011;14683;50.038;8.078;2022-12-20T18:56:15;24.80;;;14.02;;
23490;SDS011;14683;50.038;8.078;2022-12-20T18:58:45;22.13;;;15.75;;
23490;SDS011;14683;50.038;8.078;2022-12-20T19:01:13;36.83;;;19.85;;
23490;SDS011;14683;50.038;8.078;2022-12-20T19:03:41;29.45;;;17.23;;
23490;SDS011;14683;50.038;8.078;2022-12-20T19:06:07;24.92;;;15.43;;
23490;SDS011;14683;50.038;8.078;2022-12-20T19:08:35;37.80;;;22.85;;
23490;SDS011;14683;50.038;8.078;2022-12-20T19:11:06;26.20;;;17.90;;
23490;SDS011;14683;50.038;8.078;2022-12-20T19:13:37;26.80;;;17.33;;
23490;SDS011;14683;50.038;8.078;2022-12-20T19:16:04;30.15;;;16.70;;
23490;SDS011;14683;50.038;8.078;2022-12-20T19:18:32;23.38;;;15.70;;
23490;SDS011;14683;50.038;8.078;2022-12-20T19:21:03;28.98;;;16.25;;
23490;SDS011;14683;50.038;8.078;2022-12-20T19:23:39;24.42;;;14.35;;
23490;SDS011;14683;50.038;8.078;2022-12-20T19:26:08;20.80;;;14.18;;
23490;SDS011;14683;50.038;8.078;2022-12-20T19:28:39;18.83;;;13.50;;
23490;SDS011;14683;50.038;8.078;2022-12-20T19:31:06;20.40;;;13.70;;
23490;SDS011;14683;50.038;8.078;2022-12-20T19:33:40;21.17;;;13.73;;
23490;SDS011;14683;50.038;8.078;2022-12-20T19:38:49;22.30;;;15.07;;
23490;SDS011;14683;50.038;8.078;2022-12-20T19:41:16;19.58;;;13.20;;
23490;SDS011;14683;50.038;8.078;2022-12-20T19:43:43;20.58;;;13.38;;
23490;SDS011;14683;50.038;8.078;2022-12-20T19:46:11;22.05;;;14.13;;
23490;SDS011;14683;50.038;8.078;2022-12-20T19:51:04;21.30;;;13.02;;
23490;SDS011;14683;50.038;8.078;2022-12-20T19:53:31;18.50;;;12.32;;
23490;SDS011;14683;50.038;8.078;2022-12-20T19:55:57;17.17;;;12.45;;
23490;SDS011;14683;50.038;8.078;2022-12-20T19:58:24;18.90;;;12.52;;
23490;SDS011;14683;50.038;8.078;2022-12-20T20:03:16;20.05;;;12.20;;
23490;SDS011;14683;50.038;8.078;2022-12-20T20:05:43;19.33;;;12.30;;
23490;SDS011;14683;50.038;8.078;2022-12-20T20:10:35;23.77;;;13.95;;
23490;SDS011;14683;50.038;8.078;2022-12-20T20:13:01;18.00;;;12.65;;
23490;SDS011;14683;50.038;8.078;2022-12-20T20:15:27;22.88;;;14.20;;
23490;SDS011;14683;50.038;8.078;2022-12-20T20:20:20;23.25;;;14.05;;
23490;SDS011;14683;50.038;8.078;2022-12-20T20:22:47;19.95;;;13.25;;
23490;SDS011;14683;50.038;8.078;2022-12-20T20:25:13;21.13;;;14.13;;
23490;SDS011;14683;50.038;8.078;2022-12-20T20:27:39;18.65;;;13.07;;
23490;SDS011;14683;50.038;8.078;2022-12-20T20:30:06;18.23;;;13.32;;
23490;SDS011;14683;50.038;8.078;2022-12-20T20:32:35;19.50;;;13.35;;
23490;SDS011;14683;50.038;8.078;2022-12-20T20:35:01;19.92;;;13.82;;
23490;SDS011;14683;50.038;8.078;2022-12-20T20:37:28;19.25;;;12.60;;
23490;SDS011;14683;50.038;8.078;2022-12-20T20:42:20;21.70;;;13.80;;
23490;SDS011;14683;50.038;8.078;2022-12-20T20:44:46;23.80;;;14.20;;
23490;SDS011;14683;50.038;8.078;2022-12-20T20:47:12;22.77;;;14.82;;
23490;SDS011;14683;50.038;8.078;2022-12-20T20:49:38;30.75;;;19.05;;
23490;SDS011;14683;50.038;8.078;2022-12-20T20:52:04;31.38;;;19.42;;
23490;SDS011;14683;50.038;8.078;2022-12-20T20:54:30;25.20;;;17.13;;
23490;SDS011;14683;50.038;8.078;2022-12-20T20:56:56;35.45;;;22.58;;
23490;SDS011;14683;50.038;8.078;2022-12-20T20:59:23;34.63;;;18.85;;
23490;SDS011;14683;50.038;8.078;2022-12-20T21:01:49;32.08;;;18.38;;
23490;SDS011;14683;50.038;8.078;2022-12-20T21:04:16;24.92;;;15.48;;
23490;SDS011;14683;50.038;8.078;2022-12-20T21:06:42;23.20;;;14.73;;
23490;SDS011;14683;50.038;8.078;2022-12-20T21:09:08;24.00;;;15.05;;
23490;SDS011;14683;50.038;8.078;2022-12-20T21:11:34;26.75;;;16.13;;
23490;SDS011;14683;50.038;8.078;2022-12-20T21:14:01;23.95;;;16.00;;
23490;SDS011;14683;50.038;8.078;2022-12-20T21:18:54;23.33;;;15.65;;
23490;SDS011;14683;50.038;8.078;2022-12-20T21:21:22;27.20;;;16.60;;
23490;SDS011;14683;50.038;8.078;2022-12-20T21:23:49;25.80;;;16.60;;
23490;SDS011;14683;50.038;8.078;2022-12-20T21:26:16;26.75;;;18.08;;
23490;SDS011;14683;50.038;8.078;2022-12-20T21:28:43;25.52;;;16.20;;
23490;SDS011;14683;50.038;8.078;2022-12-20T21:31:10;27.73;;;16.35;;
23490;SDS011;14683;50.038;8.078;2022-12-20T21:33:38;27.50;;;16.73;;
23490;SDS011;14683;50.038;8.078;2022-12-20T21:36:06;35.25;;;20.25;;
23490;SDS011;14683;50.038;8.078;2022-12-20T21:38:34;24.65;;;15.55;;
23490;SDS011;14683;50.038;8.078;2022-12-20T21:43:27;28.47;;;17.57;;
